Lakota, North Dakota
Current Conditions -  °F | °C
As of 10:15 AM on Thursday 30 Oct 2014 (Local Time) from KDVL Reporting Station
Overcast Overcast  
Wind Chill: 22°   Ceiling: 1300
Heat Index: 34°   Visibility: 10mi
Dew Point: 21°   Wind: 20mph
Humidity: 60%   Direction: 360°N
Pressure: 30.28"   Gusts: 24mph
Location:  48.04°N, 98.34°W
Report Text: KDVL 301515Z AUTO 36017G21KT 10SM OVC013 01/M06 A3028 RMK AO1
Loading
Personal Weather Stations






























Interactive Weather Map
Tropical Storm Tracking
New forecast layout! Learn more

10-Day Weather Forecast

Advertisements
Track Severe Weather on mobile